createdAt,value
2023-02-15T00:02:26.745Z,-0.26
2023-02-15T00:05:30.389Z,-0.27
2023-02-15T00:08:32.605Z,-0.26
2023-02-15T00:11:52.590Z,-0.25
2023-02-15T00:14:54.292Z,-0.16
2023-02-15T00:17:57.778Z,-0.18
2023-02-15T00:21:03.707Z,-0.19
2023-02-15T00:24:07.946Z,-0.22
2023-02-15T00:27:10.232Z,-0.27
2023-02-15T00:30:13.061Z,-0.22
2023-02-15T00:33:16.143Z,-0.31
2023-02-15T00:36:17.955Z,-0.32
2023-02-15T00:39:20.538Z,-0.35
2023-02-15T00:42:22.411Z,-0.29
2023-02-15T00:45:24.239Z,-0.17
2023-02-15T00:48:28.731Z,-0.10
2023-02-15T00:51:31.721Z,-0.19
2023-02-15T00:54:33.431Z,-0.03
2023-02-15T00:57:35.105Z,-0.35
2023-02-15T01:00:38.134Z,-0.47
2023-02-15T01:03:42.606Z,-0.25
2023-02-15T01:06:44.929Z,-0.13
2023-02-15T01:09:46.799Z,-0.17
2023-02-15T01:12:48.846Z,-0.15
2023-02-15T01:15:54.518Z,-0.14
2023-02-15T01:18:58.285Z,-0.11
2023-02-15T01:22:00.006Z,-0.11
2023-02-15T01:25:01.895Z,-0.15
2023-02-15T01:28:05.496Z,-0.16
2023-02-15T01:31:09.100Z,-0.13
2023-02-15T01:34:12.205Z,-0.11
2023-02-15T01:37:14.257Z,-0.16
2023-02-15T01:40:18.643Z,-0.22
2023-02-15T01:43:20.649Z,-0.11
2023-02-15T01:46:27.752Z,-0.09
2023-02-15T01:49:32.069Z,-0.23
2023-02-15T01:52:35.654Z,-0.23
2023-02-15T01:55:42.353Z,-0.16
2023-02-15T01:58:45.045Z,-0.14
2023-02-15T02:01:47.570Z,-0.18
2023-02-15T02:04:52.980Z,-0.15
2023-02-15T02:07:58.348Z,-0.11
2023-02-15T02:11:00.139Z,-0.13
2023-02-15T02:14:02.100Z,-0.15
2023-02-15T02:17:14.344Z,-0.13
2023-02-15T02:20:38.194Z,-0.09
2023-02-15T02:23:44.986Z,-0.10
2023-02-15T02:27:10.667Z,-0.23
2023-02-15T02:30:41.272Z,-0.18
2023-02-15T02:33:55.103Z,-0.39
2023-02-15T02:37:03.530Z,-0.43
2023-02-15T02:40:13.963Z,-0.18
2023-02-15T02:43:21.885Z,-0.28
2023-02-15T02:46:29.127Z,-0.27
2023-02-15T02:49:34.418Z,-0.24
2023-02-15T02:52:39.717Z,-0.27
2023-02-15T02:55:46.366Z,-0.26
2023-02-15T02:58:52.125Z,-0.32
2023-02-15T03:02:01.392Z,-0.39
2023-02-15T03:05:09.813Z,-0.49
2023-02-15T03:08:14.793Z,-0.39
2023-02-15T03:11:16.967Z,-0.43
2023-02-15T03:14:20.228Z,-0.40
2023-02-15T03:17:25.540Z,-0.51
2023-02-15T03:20:32.738Z,-0.50
2023-02-15T03:23:38.275Z,-0.47
2023-02-15T03:26:43.848Z,-0.43
2023-02-15T03:29:47.447Z,-0.42
2023-02-15T03:32:50.717Z,-0.48
2023-02-15T03:35:59.391Z,-0.43
2023-02-15T03:39:08.486Z,-0.44
2023-02-15T03:42:14.886Z,-0.45
2023-02-15T03:45:22.247Z,-0.36
2023-02-15T03:48:28.626Z,-0.35
2023-02-15T03:51:38.852Z,-0.47
2023-02-15T03:54:44.369Z,-0.42
2023-02-15T03:58:05.247Z,-0.39
2023-02-15T04:01:33.129Z,-0.57
2023-02-15T04:04:37.592Z,-0.75
2023-02-15T04:07:40.625Z,-0.69
2023-02-15T04:10:54.366Z,-0.63
2023-02-15T04:13:57.531Z,-0.66
2023-02-15T04:16:59.292Z,-0.56
2023-02-15T04:20:19.936Z,-0.40
2023-02-15T04:23:41.380Z,-0.30
2023-02-15T04:26:43.101Z,-0.26
2023-02-15T04:29:44.752Z,-0.15
2023-02-15T04:32:46.758Z,-0.08
2023-02-15T04:35:48.412Z,0.00
2023-02-15T04:38:51.539Z,-0.02
2023-02-15T04:41:53.281Z,-0.09
2023-02-15T04:44:55.206Z,-0.09
2023-02-15T04:47:57.056Z,-0.15
2023-02-15T04:50:58.782Z,-0.16
2023-02-15T04:54:01.772Z,-0.09
2023-02-15T04:57:03.600Z,-0.13
2023-02-15T05:00:09.765Z,-0.26
2023-02-15T05:03:11.379Z,-0.14
2023-02-15T05:06:13.074Z,-0.23
2023-02-15T05:09:16.663Z,-0.15
2023-02-15T05:12:18.300Z,-0.12
2023-02-15T05:15:19.936Z,-0.11
2023-02-15T05:18:22.810Z,-0.12
2023-02-15T05:21:24.501Z,-0.29
2023-02-15T05:24:46.330Z,-0.27
2023-02-15T05:28:06.814Z,-0.20
2023-02-15T05:31:11.356Z,-0.33
2023-02-15T05:34:13.194Z,-0.32
2023-02-15T05:37:14.999Z,-0.29
2023-02-15T05:40:18.409Z,-0.21
2023-02-15T05:43:20.360Z,-0.22
2023-02-15T05:46:22.203Z,-0.20
2023-02-15T05:49:23.887Z,-0.14
2023-02-15T05:52:25.790Z,-0.17
2023-02-15T05:55:28.877Z,-0.15
2023-02-15T05:58:33.118Z,-0.09
2023-02-15T06:01:34.803Z,-0.06
2023-02-15T06:04:36.585Z,-0.09
2023-02-15T06:07:38.495Z,-0.10
2023-02-15T06:10:41.471Z,-0.06
2023-02-15T06:13:43.308Z,-0.10
2023-02-15T06:16:45.169Z,-0.15
2023-02-15T06:19:46.963Z,-0.09
2023-02-15T06:22:48.616Z,-0.10
2023-02-15T06:25:51.663Z,-0.20
2023-02-15T06:28:53.539Z,-0.26
2023-02-15T06:31:55.331Z,-0.15
2023-02-15T06:34:57.092Z,-0.20
2023-02-15T06:37:58.814Z,-0.04
2023-02-15T06:41:01.904Z,-0.04
2023-02-15T06:44:04.031Z,0.03
2023-02-15T06:47:05.785Z,0.04
2023-02-15T06:50:08.665Z,0.07
2023-02-15T06:53:10.368Z,0.16
2023-02-15T06:56:13.952Z,0.18
2023-02-15T06:59:15.662Z,0.13
2023-02-15T07:02:17.388Z,0.14
2023-02-15T07:05:19.084Z,0.23
2023-02-15T07:08:21.061Z,0.27
2023-02-15T07:11:43.155Z,0.27
2023-02-15T07:14:44.897Z,0.19
2023-02-15T07:17:46.664Z,0.17
2023-02-15T07:20:48.476Z,0.31
2023-02-15T07:23:50.580Z,0.32
2023-02-15T07:26:53.738Z,0.33
2023-02-15T07:29:55.573Z,0.45
2023-02-15T07:33:15.901Z,0.45
2023-02-15T07:36:17.553Z,0.48
2023-02-15T07:39:19.163Z,0.42
2023-02-15T07:42:22.957Z,0.46
2023-02-15T07:45:24.798Z,0.44
2023-02-15T07:48:26.727Z,0.46
2023-02-15T07:51:28.347Z,0.61
2023-02-15T07:54:30.047Z,0.53
2023-02-15T07:57:33.183Z,0.66
2023-02-15T08:00:54.779Z,0.68
2023-02-15T08:03:57.885Z,0.70
2023-02-15T08:06:59.586Z,0.71
2023-02-15T08:10:01.382Z,0.65
2023-02-15T08:13:04.465Z,0.70
2023-02-15T08:16:06.524Z,0.78
2023-02-15T08:19:10.031Z,0.59
2023-02-15T08:22:14.021Z,0.75
2023-02-15T08:25:35.743Z,0.78
2023-02-15T08:28:39.977Z,0.74
2023-02-15T08:31:42.585Z,0.56
2023-02-15T08:34:44.480Z,0.93
2023-02-15T08:37:46.518Z,0.93
2023-02-15T08:40:48.272Z,1.05
2023-02-15T08:43:53.404Z,1.06
2023-02-15T08:46:55.706Z,1.01
2023-02-15T08:49:57.429Z,1.04
2023-02-15T08:52:59.064Z,1.09
2023-02-15T08:56:01.021Z,1.16
2023-02-15T08:59:04.992Z,1.21
2023-02-15T09:02:06.751Z,1.15
2023-02-15T09:05:08.616Z,1.21
2023-02-15T09:08:10.496Z,1.29
2023-02-15T09:11:17.548Z,1.31
2023-02-15T09:14:22.504Z,1.40
2023-02-15T09:17:24.318Z,1.29
2023-02-15T09:20:26.066Z,1.27
2023-02-15T09:23:28.976Z,1.35
2023-02-15T09:26:32.307Z,1.33
2023-02-15T09:29:35.542Z,1.42
2023-02-15T09:32:37.217Z,1.45
2023-02-15T09:35:39.007Z,1.47
2023-02-15T09:38:40.668Z,1.37
2023-02-15T09:42:14.814Z,1.41
2023-02-15T09:46:09.208Z,1.50
2023-02-15T09:49:20.614Z,1.52
2023-02-15T09:52:34.833Z,1.65
2023-02-15T09:55:46.580Z,1.49
2023-02-15T09:58:58.761Z,1.41
2023-02-15T10:02:21.614Z,1.56
2023-02-15T10:05:30.801Z,1.51
2023-02-15T10:09:01.341Z,1.62
2023-02-15T10:12:16.177Z,1.46
2023-02-15T10:15:30.480Z,1.50
2023-02-15T10:18:51.955Z,1.58
2023-02-15T10:22:04.015Z,1.58
2023-02-15T10:25:19.007Z,1.73
2023-02-15T10:28:27.578Z,1.70
2023-02-15T10:31:38.710Z,1.65
2023-02-15T10:34:51.403Z,1.65
2023-02-15T10:38:22.409Z,1.57
2023-02-15T10:41:33.392Z,1.46
2023-02-15T10:44:51.274Z,1.44
2023-02-15T10:48:15.551Z,1.47
2023-02-15T10:51:27.459Z,1.52
2023-02-15T10:54:37.351Z,1.52
2023-02-15T10:57:52.547Z,1.40
2023-02-15T11:01:00.810Z,1.56
2023-02-15T11:04:35.351Z,1.61
2023-02-15T11:07:42.270Z,1.59
2023-02-15T11:10:49.173Z,1.71
2023-02-15T11:13:57.376Z,1.67
2023-02-15T11:17:05.883Z,1.84
2023-02-15T11:20:19.745Z,1.73
2023-02-15T11:23:25.301Z,1.88
2023-02-15T11:26:34.076Z,1.84
2023-02-15T11:29:39.618Z,1.75
2023-02-15T11:32:44.490Z,1.78
2023-02-15T11:35:52.527Z,1.74
2023-02-15T11:39:00.198Z,1.73
2023-02-15T11:42:07.455Z,1.78
2023-02-15T11:45:26.924Z,1.85
2023-02-15T11:48:31.688Z,2.20
2023-02-15T11:51:33.635Z,2.00
2023-02-15T11:54:38.590Z,1.94
2023-02-15T11:57:45.404Z,2.11
2023-02-15T12:00:50.075Z,2.10
2023-02-15T12:03:56.682Z,2.13
2023-02-15T12:07:04.070Z,2.14
2023-02-15T12:10:19.523Z,2.25
2023-02-15T12:13:22.105Z,2.12
2023-02-15T12:16:24.273Z,2.16
2023-02-15T12:19:32.082Z,2.33
2023-02-15T12:22:37.350Z,2.29
2023-02-15T12:25:41.919Z,2.33
2023-02-15T12:28:52.495Z,2.26
2023-02-15T12:31:55.586Z,2.48
2023-02-15T12:35:02.364Z,2.29
2023-02-15T12:38:22.129Z,2.20
2023-02-15T12:41:27.371Z,2.33
2023-02-15T12:44:31.021Z,2.50
2023-02-15T12:47:33.406Z,2.49
2023-02-15T12:50:35.350Z,2.61
2023-02-15T12:53:38.649Z,2.83
2023-02-15T12:56:41.647Z,3.00
2023-02-15T12:59:51.846Z,2.62
2023-02-15T13:02:55.518Z,2.56
2023-02-15T13:05:59.195Z,2.78
2023-02-15T13:09:14.115Z,2.83
2023-02-15T13:12:27.522Z,2.97
2023-02-15T13:15:35.363Z,2.82
2023-02-15T13:18:40.112Z,2.84
2023-02-15T13:21:45.901Z,2.85
2023-02-15T13:24:51.088Z,2.92
2023-02-15T13:27:55.851Z,2.78
2023-02-15T13:30:57.894Z,2.92
2023-02-15T13:34:04.288Z,2.84
2023-02-15T13:37:16.082Z,3.07
2023-02-15T13:40:23.868Z,2.90
2023-02-15T13:43:41.251Z,3.01
2023-02-15T13:47:07.720Z,2.97
2023-02-15T13:50:23.025Z,2.77
2023-02-15T13:53:39.878Z,2.83
2023-02-15T13:57:01.960Z,3.01
2023-02-15T14:00:17.943Z,2.92
2023-02-15T14:03:48.060Z,2.93
2023-02-15T14:07:29.540Z,3.06
2023-02-15T14:10:40.701Z,3.08
2023-02-15T14:13:55.942Z,3.00
2023-02-15T14:17:07.640Z,2.98
2023-02-15T14:20:18.352Z,3.18
2023-02-15T14:23:36.992Z,3.01
2023-02-15T14:26:46.464Z,2.83
2023-02-15T14:29:52.972Z,2.84
2023-02-15T14:33:00.695Z,2.91
2023-02-15T14:36:05.053Z,3.08
2023-02-15T14:39:37.520Z,2.93
2023-02-15T14:42:45.308Z,2.96
2023-02-15T14:45:53.802Z,2.96
2023-02-15T14:49:04.510Z,3.00
2023-02-15T14:52:09.340Z,3.01
2023-02-15T14:55:11.090Z,2.86
2023-02-15T14:58:13.812Z,2.81
2023-02-15T15:01:15.705Z,2.76
2023-02-15T15:04:27.016Z,2.97
2023-02-15T15:07:36.707Z,3.01
2023-02-15T15:10:41.885Z,3.02
2023-02-15T15:13:54.431Z,2.87
2023-02-15T15:16:56.165Z,2.97
2023-02-15T15:20:01.508Z,3.03
2023-02-15T15:23:39.865Z,3.11
2023-02-15T15:26:49.980Z,3.18
2023-02-15T15:29:52.249Z,2.98
2023-02-15T15:33:02.560Z,2.88
2023-02-15T15:36:35.925Z,2.87
2023-02-15T15:40:08.471Z,2.83
2023-02-15T15:43:47.335Z,2.93
2023-02-15T15:47:21.669Z,2.84
2023-02-15T15:50:23.592Z,2.80
2023-02-15T15:53:30.573Z,2.68
2023-02-15T15:56:35.840Z,2.66
2023-02-15T15:59:37.329Z,2.68
2023-02-15T16:02:51.521Z,2.53
2023-02-15T16:05:57.145Z,2.59
2023-02-15T16:09:12.080Z,2.58
2023-02-15T16:12:18.453Z,2.62
2023-02-15T16:15:24.429Z,2.66
2023-02-15T16:18:28.479Z,2.60
2023-02-15T16:21:33.050Z,2.57
2023-02-15T16:25:17.445Z,2.39
2023-02-15T16:28:21.280Z,2.50
2023-02-15T16:31:23.446Z,2.59
2023-02-15T16:34:28.892Z,2.56
2023-02-15T16:37:34.033Z,2.49
2023-02-15T16:40:47.016Z,2.41
2023-02-15T16:43:51.506Z,2.39
2023-02-15T16:46:54.997Z,2.40
2023-02-15T16:50:01.497Z,2.40
2023-02-15T16:53:06.843Z,2.44
2023-02-15T16:56:08.549Z,2.30
2023-02-15T16:59:22.954Z,2.35
2023-02-15T17:02:49.755Z,2.34
2023-02-15T17:05:51.716Z,2.40
2023-02-15T17:12:48.468Z,2.43
2023-02-15T17:16:27.281Z,2.37
2023-02-15T17:19:32.033Z,2.40
2023-02-15T17:22:33.883Z,2.40
2023-02-15T17:25:40.036Z,2.40
2023-02-15T17:28:47.502Z,2.33
2023-02-15T17:31:53.418Z,2.23
2023-02-15T17:35:05.738Z,2.20
2023-02-15T17:38:18.010Z,2.04
2023-02-15T17:41:20.254Z,1.97
2023-02-15T17:44:21.919Z,1.96
2023-02-15T17:47:27.647Z,1.92
2023-02-15T17:50:29.598Z,1.86
2023-02-15T17:53:32.299Z,1.79
2023-02-15T17:56:34.325Z,1.85
2023-02-15T17:59:36.006Z,1.81
2023-02-15T18:02:58.122Z,1.74
2023-02-15T18:06:18.451Z,1.73
2023-02-15T18:09:40.401Z,1.69
2023-02-15T18:12:42.448Z,1.71
2023-02-15T18:15:44.446Z,1.71
2023-02-15T18:18:47.715Z,1.82
2023-02-15T18:21:49.860Z,1.84
2023-02-15T18:24:51.606Z,1.80
2023-02-15T18:27:55.063Z,1.88
2023-02-15T18:30:57.318Z,1.80
2023-02-15T18:34:03.098Z,1.88
2023-02-15T18:37:06.941Z,1.85
2023-02-15T18:40:15.384Z,1.84
2023-02-15T18:43:17.151Z,1.82
2023-02-15T18:46:18.864Z,1.78
2023-02-15T18:49:22.027Z,1.81
2023-02-15T18:52:28.903Z,1.85
2023-02-15T18:55:32.921Z,1.85
2023-02-15T18:58:34.682Z,1.89
2023-02-15T19:01:36.383Z,1.89
2023-02-15T19:04:39.558Z,1.81
2023-02-15T19:07:43.036Z,1.80
2023-02-15T19:10:45.906Z,1.73
2023-02-15T19:13:48.835Z,1.67
2023-02-15T19:16:50.520Z,1.65
2023-02-15T19:19:53.569Z,1.55
2023-02-15T19:22:56.967Z,1.50
2023-02-15T19:25:58.797Z,1.29
2023-02-15T19:29:02.272Z,1.17
2023-02-15T19:32:04.705Z,1.03
2023-02-15T19:35:14.388Z,0.95
2023-02-15T19:38:19.302Z,0.85
2023-02-15T19:41:24.778Z,0.67
2023-02-15T19:44:26.698Z,0.49
2023-02-15T19:47:28.689Z,0.36
2023-02-15T19:50:34.060Z,0.32
2023-02-15T19:53:35.903Z,0.30
2023-02-15T19:56:37.769Z,0.13
2023-02-15T19:59:40.648Z,0.01
2023-02-15T20:02:42.557Z,-0.03
2023-02-15T20:05:46.149Z,-0.07
2023-02-15T20:08:48.080Z,-0.19
2023-02-15T20:11:50.919Z,-0.23
2023-02-15T20:14:53.410Z,-0.33
2023-02-15T20:17:56.719Z,-0.46
2023-02-15T20:21:01.982Z,-0.44
2023-02-15T20:24:04.164Z,-0.50
2023-02-15T20:27:10.041Z,-0.61
2023-02-15T20:30:20.247Z,-0.69
2023-02-15T20:33:22.932Z,-0.77
2023-02-15T20:36:26.415Z,-0.85
2023-02-15T20:39:28.522Z,-0.90
2023-02-15T20:42:30.493Z,-0.90
2023-02-15T20:45:33.094Z,-0.77
2023-02-15T20:48:35.659Z,-0.90
2023-02-15T20:51:40.656Z,-0.98
2023-02-15T20:54:42.376Z,-1.03
2023-02-15T20:57:45.108Z,-1.06
2023-02-15T21:00:47.202Z,-1.01
2023-02-15T21:03:49.040Z,-1.13
2023-02-15T21:06:52.244Z,-1.08
2023-02-15T21:09:54.270Z,-1.07
2023-02-15T21:12:57.938Z,-1.04
2023-02-15T21:16:00.232Z,-1.15
2023-02-15T21:19:02.143Z,-1.11
2023-02-15T21:22:05.487Z,-1.20
2023-02-15T21:25:13.560Z,-1.19
2023-02-15T21:28:18.186Z,-1.30
2023-02-15T21:31:21.814Z,-1.30
2023-02-15T21:34:24.111Z,-1.24
2023-02-15T21:37:34.988Z,-1.30
2023-02-15T21:40:36.988Z,-1.30
2023-02-15T21:43:57.174Z,-1.22
2023-02-15T21:47:17.353Z,-1.19
2023-02-15T21:50:40.106Z,-1.29
2023-02-15T21:53:48.491Z,-1.29
2023-02-15T21:56:51.474Z,-1.25
2023-02-15T21:59:53.238Z,-1.22
2023-02-15T22:02:58.102Z,-1.28
2023-02-15T22:06:00.045Z,-1.23
2023-02-15T22:09:13.141Z,-1.30
2023-02-15T22:12:16.855Z,-1.32
2023-02-15T22:15:20.871Z,-1.40
2023-02-15T22:18:24.709Z,-1.40
2023-02-15T22:21:29.648Z,-1.26
2023-02-15T22:24:32.755Z,-1.22
2023-02-15T22:27:38.881Z,-1.25
2023-02-15T22:30:40.618Z,-1.31
2023-02-15T22:33:42.308Z,-1.32
2023-02-15T22:36:44.079Z,-1.29
2023-02-15T22:39:47.246Z,-1.36
2023-02-15T22:42:50.865Z,-1.35
2023-02-15T22:45:54.957Z,-1.42
2023-02-15T22:48:56.773Z,-1.40
2023-02-15T22:51:58.459Z,-1.34
2023-02-15T22:55:01.538Z,-1.34
2023-02-15T22:58:04.133Z,-1.30
2023-02-15T23:01:06.167Z,-1.29
2023-02-15T23:04:15.010Z,-1.23
2023-02-15T23:07:18.903Z,-1.10
2023-02-15T23:10:24.940Z,-1.24
2023-02-15T23:13:30.312Z,-1.19
2023-02-15T23:16:32.513Z,-1.27
2023-02-15T23:19:34.186Z,-1.47
2023-02-15T23:22:36.181Z,-1.50
2023-02-15T23:25:39.662Z,-1.43
2023-02-15T23:28:41.369Z,-1.39
2023-02-15T23:31:45.319Z,-1.40
2023-02-15T23:34:47.109Z,-1.55
2023-02-15T23:37:48.827Z,-1.56
2023-02-15T23:41:13.436Z,-1.37
2023-02-15T23:44:15.078Z,-1.45
2023-02-15T23:47:41.869Z,-1.46
2023-02-15T23:50:43.770Z,-1.48
2023-02-15T23:53:45.774Z,-1.38
2023-02-15T23:56:52.520Z,-1.54
2023-02-15T23:59:54.209Z,-1.62
